createdAt,value
2024-01-16T00:02:10.585Z,4.87
2024-01-16T00:04:42.099Z,4.70
2024-01-16T00:07:09.337Z,5.00
2024-01-16T00:09:42.028Z,5.17
2024-01-16T00:12:09.526Z,5.07
2024-01-16T00:14:39.391Z,5.20
2024-01-16T00:17:06.877Z,4.80
2024-01-16T00:19:34.018Z,4.63
2024-01-16T00:22:05.889Z,4.83
2024-01-16T00:24:35.342Z,4.87
2024-01-16T00:27:07.461Z,5.07
2024-01-16T00:29:39.142Z,4.83
2024-01-16T00:32:06.432Z,4.77
2024-01-16T00:34:33.588Z,4.80
2024-01-16T00:37:04.756Z,4.40
2024-01-16T00:39:31.746Z,4.63
2024-01-16T00:42:02.968Z,4.70
2024-01-16T00:44:31.520Z,4.90
2024-01-16T00:46:58.507Z,4.70
2024-01-16T00:49:25.520Z,4.50
2024-01-16T00:51:52.480Z,4.37
2024-01-16T00:54:22.889Z,5.00
2024-01-16T00:56:49.866Z,5.37
2024-01-16T00:59:16.875Z,5.33
2024-01-16T01:01:45.463Z,5.20
2024-01-16T01:04:15.557Z,4.77
2024-01-16T01:06:42.819Z,5.13
2024-01-16T01:09:12.864Z,5.00
2024-01-16T01:11:40.713Z,4.80
2024-01-16T01:14:07.854Z,4.80
2024-01-16T01:16:35.408Z,5.30
2024-01-16T01:19:05.362Z,5.10
2024-01-16T01:21:32.882Z,5.03
2024-01-16T01:23:59.838Z,4.80
2024-01-16T01:26:27.958Z,4.40
2024-01-16T01:28:54.955Z,5.17
2024-01-16T01:31:21.926Z,5.20
2024-01-16T01:33:59.824Z,4.90
2024-01-16T01:36:27.092Z,4.77
2024-01-16T01:38:57.233Z,4.93
2024-01-16T01:41:29.326Z,5.57
2024-01-16T01:43:56.277Z,4.80
2024-01-16T01:46:26.388Z,5.23
2024-01-16T01:48:57.238Z,4.80
2024-01-16T01:51:24.752Z,4.60
2024-01-16T01:53:53.941Z,5.10
2024-01-16T01:56:27.755Z,4.90
2024-01-16T01:58:59.915Z,5.23
2024-01-16T02:01:30.611Z,4.80
2024-01-16T02:04:01.338Z,4.80
2024-01-16T02:06:28.467Z,4.80
2024-01-16T02:09:00.087Z,4.57
2024-01-16T02:11:27.295Z,4.67
2024-01-16T02:13:54.294Z,4.83
2024-01-16T02:16:22.734Z,4.93
2024-01-16T02:18:53.139Z,4.90
2024-01-16T02:21:27.202Z,4.63
2024-01-16T02:23:55.023Z,4.67
2024-01-16T02:26:22.292Z,4.77
2024-01-16T02:28:53.840Z,4.93
2024-01-16T02:31:26.605Z,4.87
2024-01-16T02:33:54.294Z,5.00
2024-01-16T02:36:21.253Z,4.90
2024-01-16T02:38:48.769Z,4.90
2024-01-16T02:41:17.877Z,4.60
2024-01-16T02:43:46.770Z,4.90
2024-01-16T02:46:15.478Z,4.97
2024-01-16T02:48:48.335Z,4.90
2024-01-16T02:51:16.873Z,5.30
2024-01-16T02:53:43.973Z,4.50
2024-01-16T02:56:11.073Z,4.43
2024-01-16T02:58:38.603Z,4.60
2024-01-16T03:01:08.615Z,4.80
2024-01-16T03:03:36.446Z,4.80
2024-01-16T03:06:06.175Z,4.70
2024-01-16T03:08:36.406Z,5.17
2024-01-16T03:11:04.122Z,4.87
2024-01-16T03:13:31.100Z,4.93
2024-01-16T03:15:58.158Z,4.90
2024-01-16T03:18:28.291Z,4.70
2024-01-16T03:20:59.406Z,4.97
2024-01-16T03:23:26.377Z,4.53
2024-01-16T03:25:53.708Z,4.67
2024-01-16T03:28:24.188Z,4.80
2024-01-16T03:30:54.479Z,4.73
2024-01-16T03:33:21.828Z,4.77
2024-01-16T03:35:49.037Z,4.90
2024-01-16T03:38:16.152Z,4.43
2024-01-16T03:40:43.492Z,4.43
2024-01-16T03:43:10.516Z,4.43
2024-01-16T03:45:37.415Z,4.73
2024-01-16T03:48:05.681Z,4.70
2024-01-16T03:50:32.902Z,4.60
2024-01-16T03:53:05.506Z,4.50
2024-01-16T03:55:32.543Z,4.50
2024-01-16T03:57:59.555Z,4.43
2024-01-16T04:00:26.481Z,4.40
2024-01-16T04:02:53.913Z,4.77
2024-01-16T04:05:21.261Z,4.67
2024-01-16T04:07:48.325Z,4.13
2024-01-16T04:10:15.722Z,4.30
2024-01-16T04:12:42.935Z,4.70
2024-01-16T04:15:10.281Z,4.70
2024-01-16T04:17:37.454Z,4.60
2024-01-16T04:20:08.601Z,4.50
2024-01-16T04:22:38.620Z,4.40
2024-01-16T04:25:06.123Z,4.30
2024-01-16T04:27:34.138Z,3.80
2024-01-16T04:30:02.559Z,4.23
2024-01-16T04:32:32.873Z,4.10
2024-01-16T04:34:59.928Z,3.90
2024-01-16T04:37:29.868Z,3.87
2024-01-16T04:39:56.819Z,4.03
2024-01-16T04:42:23.740Z,4.23
2024-01-16T04:44:50.813Z,4.13
2024-01-16T04:47:17.867Z,3.77
2024-01-16T04:49:45.540Z,3.77
2024-01-16T04:52:12.476Z,3.63
2024-01-16T04:54:39.443Z,3.90
2024-01-16T04:57:06.580Z,3.50
2024-01-16T04:59:36.484Z,4.07
2024-01-16T05:02:03.630Z,3.57
2024-01-16T05:04:31.589Z,3.70
2024-01-16T05:06:58.611Z,3.60
2024-01-16T05:09:28.568Z,3.77
2024-01-16T05:11:58.612Z,3.50
2024-01-16T05:14:26.568Z,3.40
2024-01-16T05:16:53.912Z,3.43
2024-01-16T05:19:21.083Z,3.30
2024-01-16T05:21:51.117Z,3.13
2024-01-16T05:24:18.435Z,3.00
2024-01-16T05:26:46.093Z,3.30
2024-01-16T05:29:13.439Z,2.90
2024-01-16T05:31:43.610Z,3.30
2024-01-16T05:34:11.494Z,2.73
2024-01-16T05:36:39.133Z,2.60
2024-01-16T05:39:06.170Z,2.93
2024-01-16T05:41:39.160Z,2.30
2024-01-16T05:44:09.278Z,2.30
2024-01-16T05:46:36.304Z,2.50
2024-01-16T05:49:06.275Z,2.67
2024-01-16T05:51:34.384Z,2.67
2024-01-16T05:54:01.676Z,2.50
2024-01-16T05:56:28.597Z,2.70
2024-01-16T05:58:55.897Z,2.70
2024-01-16T06:01:22.773Z,2.60
2024-01-16T06:03:50.983Z,2.43
2024-01-16T06:06:18.298Z,2.70
2024-01-16T06:08:48.445Z,2.30
2024-01-16T06:11:19.882Z,2.60
2024-01-16T06:13:48.561Z,3.40
2024-01-16T06:16:15.472Z,3.37
2024-01-16T06:18:42.495Z,2.27
2024-01-16T06:21:09.909Z,2.40
2024-01-16T06:23:40.007Z,2.60
2024-01-16T06:26:10.897Z,2.37
2024-01-16T06:28:40.593Z,2.30
2024-01-16T06:31:12.044Z,2.80
2024-01-16T06:33:40.099Z,2.40
2024-01-16T06:36:07.665Z,2.20
2024-01-16T06:38:37.474Z,2.63
2024-01-16T06:41:04.515Z,2.27
2024-01-16T06:43:31.643Z,2.57
2024-01-16T06:45:59.513Z,2.50
2024-01-16T06:48:27.339Z,2.50
2024-01-16T06:50:54.536Z,2.17
2024-01-16T06:53:21.732Z,2.50
2024-01-16T06:55:49.473Z,2.20
2024-01-16T06:58:16.461Z,2.00
2024-01-16T07:00:44.439Z,2.50
2024-01-16T07:03:13.129Z,2.40
2024-01-16T07:05:44.519Z,2.40
2024-01-16T07:08:12.982Z,2.30
2024-01-16T07:10:41.369Z,2.40
2024-01-16T07:13:08.683Z,2.27
2024-01-16T07:15:36.706Z,2.33
2024-01-16T07:18:04.115Z,2.10
2024-01-16T07:20:32.490Z,2.30
2024-01-16T07:23:02.522Z,2.23
2024-01-16T07:25:29.951Z,2.27
2024-01-16T07:27:56.891Z,2.20
2024-01-16T07:30:24.044Z,3.33
2024-01-16T07:32:54.665Z,3.37
2024-01-16T07:35:24.583Z,4.30
2024-01-16T07:37:56.646Z,2.80
2024-01-16T07:40:24.944Z,2.80
2024-01-16T07:42:51.944Z,3.50
2024-01-16T07:45:18.979Z,3.63
2024-01-16T07:47:46.001Z,3.17
2024-01-16T07:50:13.366Z,2.47
2024-01-16T07:52:40.420Z,2.70
2024-01-16T07:55:10.583Z,2.80
2024-01-16T07:57:37.501Z,3.30
2024-01-16T08:00:12.937Z,2.17
2024-01-16T08:02:40.419Z,2.67
2024-01-16T08:05:07.923Z,2.37
2024-01-16T08:07:35.958Z,2.10
2024-01-16T08:10:03.328Z,2.20
2024-01-16T08:12:30.318Z,3.00
2024-01-16T08:14:57.656Z,3.40
2024-01-16T08:17:24.917Z,3.40
2024-01-16T08:19:53.133Z,3.00
2024-01-16T08:22:20.625Z,2.30
2024-01-16T08:24:50.713Z,2.60
2024-01-16T08:27:18.169Z,2.40
2024-01-16T08:29:45.550Z,3.70
2024-01-16T08:32:12.574Z,3.30
2024-01-16T08:34:42.698Z,2.77
2024-01-16T08:37:18.039Z,2.73
2024-01-16T08:39:45.212Z,3.60
2024-01-16T08:42:15.238Z,3.53
2024-01-16T08:44:45.053Z,3.67
2024-01-16T08:47:12.003Z,2.77
2024-01-16T08:49:39.974Z,4.97
2024-01-16T08:52:07.649Z,3.00
2024-01-16T08:54:34.667Z,2.80
2024-01-16T08:57:04.676Z,2.57
2024-01-16T08:59:34.345Z,3.37
2024-01-16T09:02:01.789Z,2.40
2024-01-16T09:04:28.909Z,2.60
2024-01-16T09:06:59.012Z,2.50
2024-01-16T09:09:28.746Z,3.00
2024-01-16T09:11:59.213Z,2.50
2024-01-16T09:14:26.643Z,3.37
2024-01-16T09:16:55.657Z,2.53
2024-01-16T09:19:26.242Z,2.80
2024-01-16T09:21:54.322Z,2.30
2024-01-16T09:24:21.526Z,2.47
2024-01-16T09:26:48.690Z,2.83
2024-01-16T09:29:18.452Z,2.47
2024-01-16T09:31:48.083Z,3.87
2024-01-16T09:34:15.337Z,2.97
2024-01-16T09:36:45.298Z,2.63
2024-01-16T09:39:12.362Z,2.60
2024-01-16T09:41:40.611Z,3.10
2024-01-16T09:44:08.373Z,3.17
2024-01-16T09:46:41.078Z,3.43
2024-01-16T09:49:08.329Z,2.40
2024-01-16T09:51:36.391Z,4.37
2024-01-16T09:54:09.745Z,4.03
2024-01-16T09:56:43.008Z,3.30
2024-01-16T09:59:13.589Z,4.03
2024-01-16T10:01:41.197Z,2.50
2024-01-16T10:04:10.951Z,2.47
2024-01-16T10:06:40.239Z,3.20
2024-01-16T10:09:07.759Z,4.80
2024-01-16T10:11:35.567Z,3.43
2024-01-16T10:14:03.429Z,4.80
2024-01-16T10:17:04.346Z,4.17
2024-01-16T10:19:42.550Z,4.00
2024-01-16T10:22:13.830Z,4.00
2024-01-16T10:24:43.925Z,3.20
2024-01-16T10:27:11.005Z,3.10
2024-01-16T10:29:55.269Z,2.77
2024-01-16T10:32:34.662Z,3.70
2024-01-16T10:35:17.193Z,3.07
2024-01-16T10:37:52.084Z,2.70
2024-01-16T10:40:28.447Z,3.00
2024-01-16T10:43:07.782Z,2.33
2024-01-16T10:45:35.197Z,2.57
2024-01-16T10:48:04.830Z,2.10
2024-01-16T10:50:36.225Z,2.70
2024-01-16T10:53:07.875Z,2.60
2024-01-16T10:55:53.824Z,2.30
2024-01-16T10:58:23.994Z,2.37
2024-01-16T11:00:56.985Z,2.13
2024-01-16T11:03:50.475Z,2.00
2024-01-16T11:06:19.603Z,2.00
2024-01-16T11:08:51.026Z,2.20
2024-01-16T11:11:18.882Z,2.43
2024-01-16T11:13:47.887Z,2.30
2024-01-16T11:16:15.486Z,2.10
2024-01-16T11:18:46.008Z,2.23
2024-01-16T11:21:20.198Z,2.30
2024-01-16T11:23:49.310Z,2.43
2024-01-16T11:26:31.561Z,3.53
2024-01-16T11:29:00.317Z,2.20
2024-01-16T11:31:32.193Z,2.37
2024-01-16T11:34:01.025Z,1.67
2024-01-16T11:36:57.479Z,1.80
2024-01-16T11:39:26.393Z,1.83
2024-01-16T11:41:56.292Z,2.03
2024-01-16T11:44:51.384Z,1.70
2024-01-16T11:47:20.262Z,1.70
2024-01-16T11:49:50.142Z,2.00
2024-01-16T11:52:44.364Z,1.70
2024-01-16T11:55:34.742Z,1.70
2024-01-16T11:58:30.716Z,4.40
2024-01-16T12:01:02.342Z,2.10
2024-01-16T12:03:35.540Z,2.60
2024-01-16T12:06:08.332Z,3.53
2024-01-16T12:08:38.919Z,3.40
2024-01-16T12:11:06.533Z,7.03
2024-01-16T12:13:34.369Z,5.97
2024-01-16T12:16:02.557Z,12.00
2024-01-16T12:18:38.637Z,15.17
2024-01-16T12:21:14.685Z,8.73
2024-01-16T12:23:49.553Z,5.87
2024-01-16T12:26:27.175Z,4.50
2024-01-16T12:28:58.964Z,3.73
2024-01-16T12:31:32.190Z,3.97
2024-01-16T12:34:10.245Z,6.03
2024-01-16T12:36:39.359Z,2.57
2024-01-16T12:39:08.068Z,3.00
2024-01-16T12:41:43.551Z,2.60
2024-01-16T12:44:16.113Z,2.10
2024-01-16T12:46:54.738Z,2.00
2024-01-16T12:49:24.443Z,2.30
2024-01-16T12:51:54.782Z,1.90
2024-01-16T12:54:25.292Z,1.80
2024-01-16T12:57:00.520Z,2.20
2024-01-16T12:59:31.080Z,2.13
2024-01-16T13:01:59.377Z,3.10
2024-01-16T13:04:26.756Z,1.90
2024-01-16T13:07:09.554Z,2.30
2024-01-16T13:09:36.729Z,2.93
2024-01-16T13:12:03.888Z,3.27
2024-01-16T13:14:34.945Z,5.37
2024-01-16T13:17:04.035Z,4.40
2024-01-16T13:19:34.683Z,5.63
2024-01-16T13:22:02.311Z,4.30
2024-01-16T13:24:33.841Z,2.93
2024-01-16T13:27:01.858Z,3.20
2024-01-16T13:29:36.613Z,5.20
2024-01-16T13:32:03.920Z,3.50
2024-01-16T13:34:30.922Z,2.00
2024-01-16T13:37:15.212Z,1.50
2024-01-16T13:39:43.612Z,1.70
2024-01-16T13:42:10.572Z,1.70
2024-01-16T13:44:37.715Z,1.97
2024-01-16T13:47:08.352Z,2.23
2024-01-16T13:49:46.151Z,1.70
2024-01-16T13:52:13.382Z,1.60
2024-01-16T13:54:40.519Z,1.40
2024-01-16T13:57:09.530Z,2.33
2024-01-16T13:59:38.054Z,2.40
2024-01-16T14:02:14.109Z,2.20
2024-01-16T14:04:41.616Z,1.90
2024-01-16T14:07:12.656Z,2.60
2024-01-16T14:09:45.853Z,2.63
2024-01-16T14:12:14.330Z,3.20
2024-01-16T14:14:43.214Z,3.27
2024-01-16T14:17:11.136Z,4.27
2024-01-16T14:19:39.706Z,4.73
2024-01-16T14:22:07.330Z,4.13
2024-01-16T14:24:34.329Z,3.23
2024-01-16T14:27:01.643Z,4.50
2024-01-16T14:29:30.194Z,4.80
2024-01-16T14:31:58.089Z,4.90
2024-01-16T14:34:26.434Z,5.07
2024-01-16T14:36:55.050Z,5.87
2024-01-16T14:39:27.117Z,4.10
2024-01-16T14:41:55.244Z,4.17
2024-01-16T14:44:22.632Z,3.37
2024-01-16T14:46:52.144Z,6.00
2024-01-16T14:49:22.493Z,8.73
2024-01-16T14:51:49.920Z,8.40
2024-01-16T14:54:17.526Z,9.77
2024-01-16T14:56:44.514Z,7.17
2024-01-16T14:59:14.356Z,5.33
2024-01-16T15:01:44.931Z,2.97
2024-01-16T15:04:11.971Z,3.30
2024-01-16T15:06:39.409Z,5.30
2024-01-16T15:09:07.073Z,4.00
2024-01-16T15:11:34.068Z,5.00
2024-01-16T15:14:01.129Z,4.13
2024-01-16T15:16:28.867Z,5.40
2024-01-16T15:18:58.072Z,4.67
2024-01-16T15:21:25.167Z,4.17
2024-01-16T15:23:52.191Z,3.33
2024-01-16T15:26:22.046Z,3.27
2024-01-16T15:28:50.809Z,3.37
2024-01-16T15:31:18.861Z,3.40
2024-01-16T15:33:46.355Z,3.40
2024-01-16T15:36:13.428Z,2.70
2024-01-16T15:38:40.481Z,3.10
2024-01-16T15:41:07.441Z,3.00
2024-01-16T15:43:35.186Z,3.30
2024-01-16T15:46:02.282Z,3.00
2024-01-16T15:48:35.255Z,3.40
2024-01-16T15:51:05.169Z,4.10
2024-01-16T15:53:36.463Z,4.77
2024-01-16T15:56:06.853Z,4.27
2024-01-16T15:58:34.128Z,4.40
2024-01-16T16:01:01.553Z,5.10
2024-01-16T16:03:28.816Z,5.83
2024-01-16T16:05:56.453Z,8.27
2024-01-16T16:08:23.992Z,9.77
2024-01-16T16:10:51.589Z,7.53
2024-01-16T16:13:19.056Z,5.90
2024-01-16T16:15:47.144Z,5.03
2024-01-16T16:18:14.345Z,4.73
2024-01-16T16:20:41.617Z,5.07
2024-01-16T16:23:08.665Z,5.57
2024-01-16T16:25:35.711Z,7.37
2024-01-16T16:28:03.181Z,7.20
2024-01-16T16:30:31.008Z,5.63
2024-01-16T16:32:58.332Z,4.33
2024-01-16T16:35:25.420Z,3.97
2024-01-16T16:37:52.428Z,4.03
2024-01-16T16:40:19.463Z,4.20
2024-01-16T16:42:46.586Z,4.50
2024-01-16T16:45:13.559Z,4.10
2024-01-16T16:47:42.234Z,3.40
2024-01-16T16:50:10.453Z,3.70
2024-01-16T16:52:40.417Z,4.10
2024-01-16T16:55:07.705Z,4.00
2024-01-16T16:57:34.613Z,3.97
2024-01-16T17:00:01.903Z,3.63
2024-01-16T17:02:29.014Z,3.47
2024-01-16T17:04:56.144Z,3.80
2024-01-16T17:07:23.282Z,3.80
2024-01-16T17:09:50.365Z,3.97
2024-01-16T17:12:17.355Z,4.00
2024-01-16T17:14:44.555Z,3.77
2024-01-16T17:17:12.291Z,4.00
2024-01-16T17:19:39.889Z,3.27
2024-01-16T17:22:07.090Z,3.77
2024-01-16T17:24:35.801Z,4.37
2024-01-16T17:27:03.107Z,4.47
2024-01-16T17:29:30.492Z,5.57
2024-01-16T17:31:59.577Z,5.20
2024-01-16T17:34:26.755Z,6.53
2024-01-16T17:36:56.302Z,8.07
2024-01-16T17:39:26.563Z,6.80
2024-01-16T17:41:53.681Z,7.10
2024-01-16T17:44:20.679Z,6.80
2024-01-16T17:46:47.710Z,7.43
2024-01-16T17:49:15.470Z,7.00
2024-01-16T17:51:46.036Z,6.60
2024-01-16T17:54:14.591Z,9.40
2024-01-16T17:56:48.052Z,23.60
2024-01-16T17:59:16.228Z,19.97
2024-01-16T18:01:43.511Z,15.90
2024-01-16T18:04:10.554Z,16.50
2024-01-16T18:06:37.690Z,17.43
2024-01-16T18:09:10.740Z,14.97
2024-01-16T18:11:57.719Z,14.03
2024-01-16T18:14:25.729Z,14.87
2024-01-16T18:16:53.526Z,14.43
2024-01-16T18:19:24.054Z,14.93
2024-01-16T18:21:56.633Z,12.93
2024-01-16T18:24:23.790Z,12.43
2024-01-16T18:26:51.227Z,11.37
2024-01-16T18:29:21.304Z,11.90
2024-01-16T18:31:49.398Z,10.73
2024-01-16T18:34:21.826Z,9.70
2024-01-16T18:36:54.951Z,8.50
2024-01-16T18:39:22.914Z,15.37
2024-01-16T18:41:50.849Z,11.00
2024-01-16T18:44:20.138Z,9.70
2024-01-16T18:46:47.548Z,9.53
2024-01-16T18:49:14.912Z,9.20
2024-01-16T18:51:42.282Z,9.27
2024-01-16T18:54:09.305Z,8.90
2024-01-16T18:56:37.471Z,9.23
2024-01-16T18:59:06.153Z,8.70
2024-01-16T19:01:35.528Z,7.83
2024-01-16T19:04:02.793Z,7.87
2024-01-16T19:06:29.955Z,8.50
2024-01-16T19:08:59.583Z,7.87
2024-01-16T19:11:26.773Z,6.30
2024-01-16T19:13:53.813Z,7.23
2024-01-16T19:16:20.798Z,7.60
2024-01-16T19:18:48.124Z,7.40
2024-01-16T19:21:15.566Z,7.60
2024-01-16T19:23:44.036Z,8.20
2024-01-16T19:26:11.095Z,8.23
2024-01-16T19:28:38.209Z,7.70
2024-01-16T19:31:06.189Z,10.37
2024-01-16T19:33:33.761Z,13.13
2024-01-16T19:36:02.908Z,12.37
2024-01-16T19:38:30.205Z,11.40
2024-01-16T19:40:57.341Z,12.13
2024-01-16T19:43:24.347Z,9.87
2024-01-16T19:45:52.150Z,7.17
2024-01-16T19:48:20.499Z,6.80
2024-01-16T19:50:47.785Z,7.97
2024-01-16T19:53:17.939Z,9.83
2024-01-16T19:55:45.484Z,10.70
2024-01-16T20:01:54.585Z,13.43
2024-01-16T20:04:24.830Z,11.87
2024-01-16T20:06:53.328Z,13.70
2024-01-16T20:09:20.319Z,15.50
2024-01-16T20:11:47.716Z,11.77
2024-01-16T20:14:15.496Z,11.73
2024-01-16T20:16:42.960Z,11.70
2024-01-16T20:19:10.741Z,9.63
2024-01-16T20:21:38.218Z,8.40
2024-01-16T20:24:08.365Z,9.60
2024-01-16T20:26:35.963Z,9.90
2024-01-16T20:29:03.114Z,9.30
2024-01-16T20:31:30.355Z,9.90
2024-01-16T20:33:57.663Z,9.00
2024-01-16T20:36:24.947Z,8.13
2024-01-16T20:38:57.667Z,8.70
2024-01-16T20:41:24.765Z,10.17
2024-01-16T20:43:54.874Z,9.30
2024-01-16T20:46:21.835Z,9.20
2024-01-16T20:48:49.746Z,9.30
2024-01-16T20:51:17.598Z,9.60
2024-01-16T20:53:45.063Z,8.97
2024-01-16T20:56:12.082Z,10.97
2024-01-16T20:58:39.763Z,9.47
2024-01-16T21:01:08.688Z,11.57
2024-01-16T21:03:35.889Z,9.47
2024-01-16T21:06:04.579Z,9.40
2024-01-16T21:08:32.972Z,9.47
2024-01-16T21:11:00.479Z,8.90
2024-01-16T21:13:29.179Z,7.67
2024-01-16T21:15:57.789Z,7.50
2024-01-16T21:18:25.487Z,6.77
2024-01-16T21:20:53.093Z,6.37
2024-01-16T21:23:20.199Z,7.83
2024-01-16T21:25:47.158Z,7.33
2024-01-16T21:28:14.651Z,7.17
2024-01-16T21:30:43.550Z,7.77
2024-01-16T21:33:12.033Z,8.20
2024-01-16T21:35:44.090Z,8.80
2024-01-16T21:38:11.093Z,7.73
2024-01-16T21:40:37.995Z,8.57
2024-01-16T21:43:05.101Z,8.43
2024-01-16T21:45:32.356Z,8.50
2024-01-16T21:47:59.912Z,8.43
2024-01-16T21:50:36.891Z,8.63
2024-01-16T21:53:05.362Z,8.60
2024-01-16T21:55:32.418Z,9.10
2024-01-16T21:57:59.280Z,10.03
2024-01-16T22:00:26.424Z,11.10
2024-01-16T22:02:58.051Z,12.43
2024-01-16T22:05:29.616Z,12.83
2024-01-16T22:07:56.809Z,12.43
2024-01-16T22:10:24.385Z,11.57
2024-01-16T22:12:51.367Z,11.03
2024-01-16T22:15:18.421Z,11.43
2024-01-16T22:17:48.034Z,12.63
2024-01-16T22:20:16.306Z,11.07
2024-01-16T22:22:43.231Z,10.77
2024-01-16T22:25:13.605Z,10.07
2024-01-16T22:27:40.899Z,10.27
2024-01-16T22:30:13.142Z,9.83
2024-01-16T22:32:40.726Z,9.83
2024-01-16T22:35:11.892Z,9.17
2024-01-16T22:37:43.250Z,10.27
2024-01-16T22:40:14.027Z,7.57
2024-01-16T22:42:41.158Z,6.90
2024-01-16T22:45:09.694Z,6.87
2024-01-16T22:47:40.285Z,6.17
2024-01-16T22:50:10.774Z,6.40
2024-01-16T22:52:37.718Z,7.17
2024-01-16T22:55:05.400Z,7.50
2024-01-16T22:57:36.958Z,7.20
2024-01-16T23:00:17.886Z,7.07
2024-01-16T23:02:46.019Z,7.00
2024-01-16T23:05:26.086Z,6.97
2024-01-16T23:07:54.337Z,6.80
2024-01-16T23:10:22.549Z,7.80
2024-01-16T23:12:50.021Z,7.60
2024-01-16T23:15:17.115Z,9.73
2024-01-16T23:17:44.519Z,10.10
2024-01-16T23:20:17.409Z,10.63
2024-01-16T23:22:44.661Z,10.10
2024-01-16T23:25:13.085Z,9.93
2024-01-16T23:27:41.788Z,10.20
2024-01-16T23:30:11.803Z,11.27
2024-01-16T23:32:39.246Z,11.27
2024-01-16T23:35:10.761Z,10.80
2024-01-16T23:37:41.034Z,10.43
2024-01-16T23:40:10.709Z,10.57
2024-01-16T23:42:40.046Z,9.80
2024-01-16T23:45:17.188Z,9.43
2024-01-16T23:47:48.796Z,9.50
2024-01-16T23:50:18.277Z,8.53
2024-01-16T23:52:45.789Z,8.37
2024-01-16T23:55:12.962Z,8.33
2024-01-16T23:57:42.841Z,8.53
